sensor_id;sensor_type;location;lat;lon;timestamp;pressure;altitude;pressure_sealevel;temperature;humidity
68508;BME280;55510;49.560;19.090;2023-04-20T00:01:49;96576.66;;;4.99;100.00
68508;BME280;55510;49.560;19.090;2023-04-20T00:04:50;96579.31;;;4.99;100.00
68508;BME280;55510;49.560;19.090;2023-04-20T00:07:51;96577.47;;;5.00;100.00
68508;BME280;55510;49.560;19.090;2023-04-20T00:10:53;96579.31;;;4.99;100.00
68508;BME280;55510;49.560;19.090;2023-04-20T00:13:54;96582.94;;;4.98;100.00
68508;BME280;55510;49.560;19.090;2023-04-20T00:16:55;96578.69;;;4.97;100.00
68508;BME280;55510;49.560;19.090;2023-04-20T00:19:56;96579.31;;;4.99;100.00
68508;BME280;55510;49.560;19.090;2023-04-20T00:22:56;96577.28;;;5.01;100.00
68508;BME280;55510;49.560;19.090;2023-04-20T00:25:57;96568.34;;;5.02;100.00
68508;BME280;55510;49.560;19.090;2023-04-20T00:28:58;96564.09;;;5.01;100.00
68508;BME280;55510;49.560;19.090;2023-04-20T00:31:58;96565.88;;;5.01;100.00
68508;BME280;55510;49.560;19.090;2023-04-20T00:34:59;96566.31;;;5.04;100.00
68508;BME280;55510;49.560;19.090;2023-04-20T00:38:00;96560.84;;;4.99;100.00
68508;BME280;55510;49.560;19.090;2023-04-20T00:41:01;96567.50;;;5.02;100.00
68508;BME280;55510;49.560;19.090;2023-04-20T00:44:02;96560.63;;;5.01;100.00
68508;BME280;55510;49.560;19.090;2023-04-20T00:47:02;96562.66;;;4.99;100.00
68508;BME280;55510;49.560;19.090;2023-04-20T00:50:04;96565.09;;;5.00;100.00
68508;BME280;55510;49.560;19.090;2023-04-20T00:53:04;96565.09;;;5.00;100.00
68508;BME280;55510;49.560;19.090;2023-04-20T00:56:06;96561.44;;;5.01;100.00
68508;BME280;55510;49.560;19.090;2023-04-20T00:59:07;96558.81;;;5.01;100.00
68508;BME280;55510;49.560;19.090;2023-04-20T01:02:09;96557.78;;;5.02;100.00
68508;BME280;55510;49.560;19.090;2023-04-20T01:05:10;96552.94;;;4.99;100.00
68508;BME280;55510;49.560;19.090;2023-04-20T01:08:11;96555.75;;;4.98;100.00
68508;BME280;55510;49.560;19.090;2023-04-20T01:11:11;96547.44;;;4.94;100.00
68508;BME280;55510;49.560;19.090;2023-04-20T01:14:12;96544.22;;;4.92;100.00
68508;BME280;55510;49.560;19.090;2023-04-20T01:17:13;96543.00;;;4.88;100.00
68508;BME280;55510;49.560;19.090;2023-04-20T01:20:14;96549.66;;;4.84;100.00
68508;BME280;55510;49.560;19.090;2023-04-20T01:23:15;96537.09;;;4.79;100.00
68508;BME280;55510;49.560;19.090;2023-04-20T01:26:17;96541.16;;;4.75;100.00
68508;BME280;55510;49.560;19.090;2023-04-20T01:29:18;96527.97;;;4.68;100.00
68508;BME280;55510;49.560;19.090;2023-04-20T01:32:19;96536.06;;;4.60;100.00
68508;BME280;55510;49.560;19.090;2023-04-20T01:35:19;96535.06;;;4.47;100.00
68508;BME280;55510;49.560;19.090;2023-04-20T01:38:21;96541.50;;;4.38;100.00
68508;BME280;55510;49.560;19.090;2023-04-20T01:41:22;96538.88;;;4.31;100.00
68508;BME280;55510;49.560;19.090;2023-04-20T01:44:24;96539.06;;;4.23;100.00
68508;BME280;55510;49.560;19.090;2023-04-20T01:47:24;96545.94;;;4.17;100.00
68508;BME280;55510;49.560;19.090;2023-04-20T01:50:25;96547.53;;;4.12;100.00
68508;BME280;55510;49.560;19.090;2023-04-20T01:53:26;96544.06;;;4.04;100.00
68508;BME280;55510;49.560;19.090;2023-04-20T01:56:27;96541.44;;;3.98;100.00
68508;BME280;55510;49.560;19.090;2023-04-20T01:59:28;96541.78;;;3.95;100.00
68508;BME280;55510;49.560;19.090;2023-04-20T02:02:29;96541.38;;;3.91;100.00
68508;BME280;55510;49.560;19.090;2023-04-20T02:05:29;96531.66;;;3.91;100.00
68508;BME280;55510;49.560;19.090;2023-04-20T02:08:31;96527.00;;;3.94;100.00
68508;BME280;55510;49.560;19.090;2023-04-20T02:11:32;96531.66;;;3.91;100.00
68508;BME280;55510;49.560;19.090;2023-04-20T02:14:33;96528.63;;;3.88;100.00
68508;BME280;55510;49.560;19.090;2023-04-20T02:17:34;96533.47;;;3.84;100.00
68508;BME280;55510;49.560;19.090;2023-04-20T02:20:36;96532.00;;;3.75;100.00
68508;BME280;55510;49.560;19.090;2023-04-20T02:23:36;96535.59;;;3.67;100.00
68508;BME280;55510;49.560;19.090;2023-04-20T02:26:37;96540.47;;;3.63;100.00
68508;BME280;55510;49.560;19.090;2023-04-20T02:29:38;96547.34;;;3.65;100.00
68508;BME280;55510;49.560;19.090;2023-04-20T02:32:38;96540.88;;;3.67;100.00
68508;BME280;55510;49.560;19.090;2023-04-20T02:35:39;96545.56;;;3.72;100.00
68508;BME280;55510;49.560;19.090;2023-04-20T02:38:40;96545.38;;;3.80;100.00
68508;BME280;55510;49.560;19.090;2023-04-20T02:41:40;96536.31;;;3.89;100.00
68508;BME280;55510;49.560;19.090;2023-04-20T02:44:41;96537.78;;;3.99;100.00
68508;BME280;55510;49.560;19.090;2023-04-20T02:47:42;96545.09;;;4.10;100.00
68508;BME280;55510;49.560;19.090;2023-04-20T02:50:43;96552.41;;;4.21;100.00
68508;BME280;55510;49.560;19.090;2023-04-20T02:53:43;96547.78;;;4.30;100.00
68508;BME280;55510;49.560;19.090;2023-04-20T02:56:44;96546.97;;;4.30;100.00
68508;BME280;55510;49.560;19.090;2023-04-20T02:59:45;96549.00;;;4.28;100.00
68508;BME280;55510;49.560;19.090;2023-04-20T03:02:45;96545.97;;;4.24;100.00
68508;BME280;55510;49.560;19.090;2023-04-20T03:05:46;96553.03;;;4.24;100.00
68508;BME280;55510;49.560;19.090;2023-04-20T03:08:47;96550.78;;;4.14;100.00
68508;BME280;55510;49.560;19.090;2023-04-20T03:11:48;96547.94;;;4.15;100.00
68508;BME280;55510;49.560;19.090;2023-04-20T03:14:49;96550.59;;;4.15;100.00
68508;BME280;55510;49.560;19.090;2023-04-20T03:17:49;96555.25;;;4.13;100.00
68508;BME280;55510;49.560;19.090;2023-04-20T03:20:50;96554.00;;;4.16;100.00
68508;BME280;55510;49.560;19.090;2023-04-20T03:23:52;96557.66;;;4.15;100.00
68508;BME280;55510;49.560;19.090;2023-04-20T03:26:52;96555.63;;;4.17;100.00
68508;BME280;55510;49.560;19.090;2023-04-20T03:29:53;96543.47;;;4.09;100.00
68508;BME280;55510;49.560;19.090;2023-04-20T03:32:54;96550.94;;;4.05;100.00
68508;BME280;55510;49.560;19.090;2023-04-20T03:35:54;96549.16;;;4.06;100.00
68508;BME280;55510;49.560;19.090;2023-04-20T03:38:55;96556.47;;;4.17;100.00
68508;BME280;55510;49.560;19.090;2023-04-20T03:41:56;96564.00;;;4.27;100.00
68508;BME280;55510;49.560;19.090;2023-04-20T03:44:57;96573.72;;;4.27;100.00
68508;BME280;55510;49.560;19.090;2023-04-20T03:47:57;96570.84;;;4.15;100.00
68508;BME280;55510;49.560;19.090;2023-04-20T03:50:58;96575.00;;;3.96;100.00
68508;BME280;55510;49.560;19.090;2023-04-20T03:53:59;96574.41;;;3.94;100.00
68508;BME280;55510;49.560;19.090;2023-04-20T03:57:00;96575.00;;;3.96;100.00
68508;BME280;55510;49.560;19.090;2023-04-20T04:00:01;96580.94;;;3.98;100.00
68508;BME280;55510;49.560;19.090;2023-04-20T04:03:03;96577.28;;;3.99;100.00
68508;BME280;55510;49.560;19.090;2023-04-20T04:06:04;96582.72;;;3.97;100.00
68508;BME280;55510;49.560;19.090;2023-04-20T04:09:05;96583.56;;;3.98;100.00
68508;BME280;55510;49.560;19.090;2023-04-20T04:12:06;96585.38;;;3.97;100.00
68508;BME280;55510;49.560;19.090;2023-04-20T04:15:07;96586.56;;;3.95;100.00
68508;BME280;55510;49.560;19.090;2023-04-20T04:18:08;96578.28;;;3.98;100.00
68508;BME280;55510;49.560;19.090;2023-04-20T04:21:09;96577.69;;;4.02;100.00
68508;BME280;55510;49.560;19.090;2023-04-20T04:24:12;96581.75;;;4.05;100.00
68508;BME280;55510;49.560;19.090;2023-04-20T04:27:13;96580.50;;;3.94;100.00
68508;BME280;55510;49.560;19.090;2023-04-20T04:30:14;96584.53;;;3.97;100.00
68508;BME280;55510;49.560;19.090;2023-04-20T04:33:15;96583.56;;;4.04;100.00
68508;BME280;55510;49.560;19.090;2023-04-20T04:36:18;96580.34;;;4.09;100.00
68508;BME280;55510;49.560;19.090;2023-04-20T04:39:19;96583.81;;;4.16;100.00
68508;BME280;55510;49.560;19.090;2023-04-20T04:42:20;96583.22;;;4.21;100.00
68508;BME280;55510;49.560;19.090;2023-04-20T04:45:20;96585.66;;;4.23;100.00
68508;BME280;55510;49.560;19.090;2023-04-20T04:48:21;96583.28;;;4.34;100.00
68508;BME280;55510;49.560;19.090;2023-04-20T04:51:22;96586.53;;;4.43;100.00
68508;BME280;55510;49.560;19.090;2023-04-20T04:54:23;96586.56;;;4.57;100.00
68508;BME280;55510;49.560;19.090;2023-04-20T04:57:24;96592.47;;;4.66;100.00
68508;BME280;55510;49.560;19.090;2023-04-20T05:00:25;96596.31;;;4.70;100.00
68508;BME280;55510;49.560;19.090;2023-04-20T05:03:26;96597.13;;;4.77;100.00
68508;BME280;55510;49.560;19.090;2023-04-20T05:06:26;96595.50;;;4.83;100.00
68508;BME280;55510;49.560;19.090;2023-04-20T05:09:27;96596.31;;;4.83;100.00
68508;BME280;55510;49.560;19.090;2023-04-20T05:12:32;96600.38;;;4.92;100.00
68508;BME280;55510;49.560;19.090;2023-04-20T05:15:33;96611.34;;;5.03;100.00
68508;BME280;55510;49.560;19.090;2023-04-20T05:18:34;96613.38;;;5.21;100.00
68508;BME280;55510;49.560;19.090;2023-04-20T05:21:35;96606.50;;;5.33;100.00
68508;BME280;55510;49.560;19.090;2023-04-20T05:24:37;96615.00;;;5.49;100.00
68508;BME280;55510;49.560;19.090;2023-04-20T05:27:38;96609.88;;;5.68;100.00
68508;BME280;55510;49.560;19.090;2023-04-20T05:30:38;96614.72;;;5.84;100.00
68508;BME280;55510;49.560;19.090;2023-04-20T05:33:39;96612.22;;;5.96;100.00
68508;BME280;55510;49.560;19.090;2023-04-20T05:36:40;96613.84;;;6.11;100.00
68508;BME280;55510;49.560;19.090;2023-04-20T05:39:41;96618.28;;;6.23;100.00
68508;BME280;55510;49.560;19.090;2023-04-20T05:42:41;96620.84;;;6.37;100.00
68508;BME280;55510;49.560;19.090;2023-04-20T05:45:42;96625.28;;;6.50;100.00
68508;BME280;55510;49.560;19.090;2023-04-20T05:48:43;96624.78;;;6.66;100.00
68508;BME280;55510;49.560;19.090;2023-04-20T05:51:43;96629.16;;;6.86;100.00
68508;BME280;55510;49.560;19.090;2023-04-20T05:54:44;96633.50;;;6.99;100.00
68508;BME280;55510;49.560;19.090;2023-04-20T05:57:45;96632.31;;;6.95;100.00
68508;BME280;55510;49.560;19.090;2023-04-20T06:00:45;96636.75;;;7.01;100.00
68508;BME280;55510;49.560;19.090;2023-04-20T06:03:47;96642.31;;;6.93;100.00
68508;BME280;55510;49.560;19.090;2023-04-20T06:06:48;96643.34;;;6.92;100.00
68508;BME280;55510;49.560;19.090;2023-04-20T06:09:49;96643.72;;;6.95;100.00
68508;BME280;55510;49.560;19.090;2023-04-20T06:12:49;96646.81;;;6.92;100.00
68508;BME280;55510;49.560;19.090;2023-04-20T06:15:50;96643.78;;;6.89;100.00
68508;BME280;55510;49.560;19.090;2023-04-20T06:18:53;96650.25;;;6.93;100.00
68508;BME280;55510;49.560;19.090;2023-04-20T06:21:53;96655.13;;;6.96;100.00
68508;BME280;55510;49.560;19.090;2023-04-20T06:24:54;96656.31;;;7.00;100.00
68508;BME280;55510;49.560;19.090;2023-04-20T06:27:55;96649.19;;;7.01;100.00
68508;BME280;55510;49.560;19.090;2023-04-20T06:30:55;96655.03;;;7.09;100.00
68508;BME280;55510;49.560;19.090;2023-04-20T06:33:56;96654.19;;;7.16;100.00
68508;BME280;55510;49.560;19.090;2023-04-20T06:36:57;96658.63;;;7.22;100.00
68508;BME280;55510;49.560;19.090;2023-04-20T06:39:58;96656.88;;;7.34;100.00
68508;BME280;55510;49.560;19.090;2023-04-20T06:42:58;96653.81;;;7.37;100.00
68508;BME280;55510;49.560;19.090;2023-04-20T06:45:59;96657.19;;;7.45;100.00
68508;BME280;55510;49.560;19.090;2023-04-20T06:49:00;96654.31;;;7.53;99.88
68508;BME280;55510;49.560;19.090;2023-04-20T06:52:01;96655.50;;;7.57;99.68
68508;BME280;55510;49.560;19.090;2023-04-20T06:55:01;96646.94;;;7.55;99.05
68508;BME280;55510;49.560;19.090;2023-04-20T06:58:02;96646.19;;;7.48;98.92
68508;BME280;55510;49.560;19.090;2023-04-20T07:01:03;96654.56;;;7.45;98.11
68508;BME280;55510;49.560;19.090;2023-04-20T07:04:04;96650.44;;;7.49;98.46
68508;BME280;55510;49.560;19.090;2023-04-20T07:07:04;96652.25;;;7.55;99.07
68508;BME280;55510;49.560;19.090;2023-04-20T07:10:06;96649.69;;;7.67;98.57
68508;BME280;55510;49.560;19.090;2023-04-20T07:13:08;96657.28;;;7.82;97.61
68508;BME280;55510;49.560;19.090;2023-04-20T07:16:08;96660.47;;;7.91;96.66
68508;BME280;55510;49.560;19.090;2023-04-20T07:19:09;96656.19;;;8.08;95.98
68508;BME280;55510;49.560;19.090;2023-04-20T07:22:10;96661.00;;;8.18;94.64
68508;BME280;55510;49.560;19.090;2023-04-20T07:25:11;96652.59;;;8.40;94.47
68508;BME280;55510;49.560;19.090;2023-04-20T07:28:15;96648.25;;;8.76;95.93
68508;BME280;55510;49.560;19.090;2023-04-20T07:31:16;96652.75;;;9.06;93.69
68508;BME280;55510;49.560;19.090;2023-04-20T07:34:17;96658.56;;;9.27;91.96
68508;BME280;55510;49.560;19.090;2023-04-20T07:37:18;96653.19;;;9.46;90.62
68508;BME280;55510;49.560;19.090;2023-04-20T07:40:19;96654.69;;;9.65;89.72
68508;BME280;55510;49.560;19.090;2023-04-20T07:43:19;96659.31;;;9.82;88.89
68508;BME280;55510;49.560;19.090;2023-04-20T07:46:23;96657.91;;;9.91;89.28
68508;BME280;55510;49.560;19.090;2023-04-20T07:49:24;96663.66;;;10.12;87.24
68508;BME280;55510;49.560;19.090;2023-04-20T07:52:25;96662.81;;;10.47;89.42
68508;BME280;55510;49.560;19.090;2023-04-20T07:55:26;96665.06;;;10.67;87.38
68508;BME280;55510;49.560;19.090;2023-04-20T07:58:27;96664.69;;;10.76;84.38
68508;BME280;55510;49.560;19.090;2023-04-20T08:01:27;96661.72;;;10.72;82.78
68508;BME280;55510;49.560;19.090;2023-04-20T08:04:28;96665.81;;;10.63;83.37
68508;BME280;55510;49.560;19.090;2023-04-20T08:07:29;96658.28;;;10.88;83.39
68508;BME280;55510;49.560;19.090;2023-04-20T08:10:32;96665.19;;;11.19;84.67
68508;BME280;55510;49.560;19.090;2023-04-20T08:13:33;96667.22;;;11.45;83.62
68508;BME280;55510;49.560;19.090;2023-04-20T08:16:35;96665.59;;;11.44;79.85
68508;BME280;55510;49.560;19.090;2023-04-20T08:19:35;96667.72;;;11.42;79.08
68508;BME280;55510;49.560;19.090;2023-04-20T08:22:37;96663.34;;;11.36;77.52
68508;BME280;55510;49.560;19.090;2023-04-20T08:25:38;96655.84;;;11.50;79.96
68508;BME280;55510;49.560;19.090;2023-04-20T08:28:40;96661.34;;;11.60;77.88
68508;BME280;55510;49.560;19.090;2023-04-20T08:31:43;96650.81;;;11.88;78.38
68508;BME280;55510;49.560;19.090;2023-04-20T08:34:44;96662.97;;;12.18;79.23
68508;BME280;55510;49.560;19.090;2023-04-20T08:37:44;96662.81;;;12.25;76.52
68508;BME280;55510;49.560;19.090;2023-04-20T08:40:45;96663.03;;;12.23;75.61
68508;BME280;55510;49.560;19.090;2023-04-20T08:43:46;96670.59;;;12.09;74.50
68508;BME280;55510;49.560;19.090;2023-04-20T08:46:49;96669.16;;;11.84;74.89
68508;BME280;55510;49.560;19.090;2023-04-20T08:49:52;96673.03;;;11.59;76.30
68508;BME280;55510;49.560;19.090;2023-04-20T08:52:56;96662.06;;;11.39;76.70
68508;BME280;55510;49.560;19.090;2023-04-20T08:55:57;96665.78;;;11.38;76.48
68508;BME280;55510;49.560;19.090;2023-04-20T08:58:59;96669.06;;;11.11;77.58
68508;BME280;55510;49.560;19.090;2023-04-20T09:02:10;96669.94;;;10.99;77.66
68508;BME280;55510;49.560;19.090;2023-04-20T09:05:11;96673.13;;;10.84;77.76
68508;BME280;55510;49.560;19.090;2023-04-20T09:08:12;96671.78;;;10.70;77.57
68508;BME280;55510;49.560;19.090;2023-04-20T09:11:25;96670.44;;;10.55;79.77
68508;BME280;55510;49.560;19.090;2023-04-20T09:14:26;96669.06;;;10.53;78.59
68508;BME280;55510;49.560;19.090;2023-04-20T09:17:35;96671.41;;;10.78;83.15
68508;BME280;55510;49.560;19.090;2023-04-20T09:20:36;96666.09;;;11.07;77.13
68508;BME280;55510;49.560;19.090;2023-04-20T09:23:37;96659.50;;;11.44;75.70
68508;BME280;55510;49.560;19.090;2023-04-20T09:26:37;96664.00;;;11.78;74.28
68508;BME280;55510;49.560;19.090;2023-04-20T09:29:38;96658.00;;;12.04;74.51
68508;BME280;55510;49.560;19.090;2023-04-20T09:32:39;96663.19;;;11.94;73.27
68508;BME280;55510;49.560;19.090;2023-04-20T09:35:41;96664.63;;;11.85;72.90
68508;BME280;55510;49.560;19.090;2023-04-20T09:38:42;96661.41;;;11.66;72.55
68508;BME280;55510;49.560;19.090;2023-04-20T09:41:43;96672.81;;;11.44;73.90
68508;BME280;55510;49.560;19.090;2023-04-20T09:44:44;96657.03;;;11.25;74.98
68508;BME280;55510;49.560;19.090;2023-04-20T09:47:46;96667.50;;;10.98;76.27
68508;BME280;55510;49.560;19.090;2023-04-20T09:50:48;96668.75;;;10.78;76.61
68508;BME280;55510;49.560;19.090;2023-04-20T09:53:49;96664.03;;;10.68;77.20
68508;BME280;55510;49.560;19.090;2023-04-20T09:56:53;96673.78;;;10.63;78.27
68508;BME280;55510;49.560;19.090;2023-04-20T09:59:54;96658.53;;;10.46;78.22
68508;BME280;55510;49.560;19.090;2023-04-20T10:02:56;96653.56;;;10.38;78.29
68508;BME280;55510;49.560;19.090;2023-04-20T10:05:57;96661.44;;;10.33;79.86
68508;BME280;55510;49.560;19.090;2023-04-20T10:09:01;96665.81;;;10.39;79.56
68508;BME280;55510;49.560;19.090;2023-04-20T10:12:06;96666.44;;;10.41;79.52
68508;BME280;55510;49.560;19.090;2023-04-20T10:15:08;96661.44;;;10.33;78.91
68508;BME280;55510;49.560;19.090;2023-04-20T10:18:20;96657.75;;;10.34;79.99
68508;BME280;55510;49.560;19.090;2023-04-20T10:21:22;96654.03;;;10.35;79.45
68508;BME280;55510;49.560;19.090;2023-04-20T10:24:33;96658.53;;;10.46;80.16
68508;BME280;55510;49.560;19.090;2023-04-20T10:27:33;96657.38;;;10.54;79.32
68508;BME280;55510;49.560;19.090;2023-04-20T10:30:35;96651.16;;;10.77;79.28
68508;BME280;55510;49.560;19.090;2023-04-20T10:33:47;96648.19;;;11.54;81.04
68508;BME280;55510;49.560;19.090;2023-04-20T10:36:48;96647.53;;;12.20;76.02
68508;BME280;55510;49.560;19.090;2023-04-20T10:39:49;96649.09;;;12.38;76.45
68508;BME280;55510;49.560;19.090;2023-04-20T10:42:50;96649.03;;;12.33;73.97
68508;BME280;55510;49.560;19.090;2023-04-20T10:45:50;96656.34;;;12.21;73.73
68508;BME280;55510;49.560;19.090;2023-04-20T10:48:59;96646.41;;;11.99;72.95
68508;BME280;55510;49.560;19.090;2023-04-20T10:52:00;96657.13;;;11.82;73.80
68508;BME280;55510;49.560;19.090;2023-04-20T10:55:02;96647.28;;;11.82;75.39
68508;BME280;55510;49.560;19.090;2023-04-20T10:58:03;96647.34;;;11.70;74.39
68508;BME280;55510;49.560;19.090;2023-04-20T11:01:06;96645.75;;;11.69;74.75
68508;BME280;55510;49.560;19.090;2023-04-20T11:04:08;96648.50;;;11.57;74.86
68508;BME280;55510;49.560;19.090;2023-04-20T11:07:10;96645.53;;;11.54;75.19
68508;BME280;55510;49.560;19.090;2023-04-20T11:10:13;96657.06;;;11.59;76.26
68508;BME280;55510;49.560;19.090;2023-04-20T11:13:19;96645.03;;;11.57;75.88
68508;BME280;55510;49.560;19.090;2023-04-20T11:16:20;96643.78;;;11.82;76.62
68508;BME280;55510;49.560;19.090;2023-04-20T11:19:25;96643.19;;;12.14;75.42
68508;BME280;55510;49.560;19.090;2023-04-20T11:22:25;96637.41;;;12.44;74.68
68508;BME280;55510;49.560;19.090;2023-04-20T11:25:26;96628.88;;;12.70;73.54
68508;BME280;55510;49.560;19.090;2023-04-20T11:28:27;96637.94;;;12.69;71.42
68508;BME280;55510;49.560;19.090;2023-04-20T11:31:34;96644.75;;;12.54;70.99
68508;BME280;55510;49.560;19.090;2023-04-20T11:34:36;96637.28;;;12.56;72.39
68508;BME280;55510;49.560;19.090;2023-04-20T11:37:50;96639.63;;;12.75;72.98
68508;BME280;55510;49.560;19.090;2023-04-20T11:40:50;96636.56;;;12.88;73.39
68508;BME280;55510;49.560;19.090;2023-04-20T11:43:51;96639.41;;;13.09;72.90
68508;BME280;55510;49.560;19.090;2023-04-20T11:46:53;96635.19;;;13.13;72.02
68508;BME280;55510;49.560;19.090;2023-04-20T11:49:56;96634.91;;;13.10;72.01
68508;BME280;55510;49.560;19.090;2023-04-20T11:52:57;96633.72;;;13.00;72.36
68508;BME280;55510;49.560;19.090;2023-04-20T11:55:57;96621.66;;;12.93;69.93
68508;BME280;55510;49.560;19.090;2023-04-20T11:58:58;96627.72;;;12.88;69.94
68508;BME280;55510;49.560;19.090;2023-04-20T12:01:59;96622.38;;;12.88;72.07
68508;BME280;55510;49.560;19.090;2023-04-20T12:05:03;96623.47;;;13.19;72.11
68508;BME280;55510;49.560;19.090;2023-04-20T12:08:04;96617.00;;;13.81;71.79
68508;BME280;55510;49.560;19.090;2023-04-20T12:11:07;96629.91;;;14.53;68.36
68508;BME280;55510;49.560;19.090;2023-04-20T12:14:08;96625.25;;;15.22;65.61
68508;BME280;55510;49.560;19.090;2023-04-20T12:17:08;96622.03;;;15.56;62.53
68508;BME280;55510;49.560;19.090;2023-04-20T12:20:10;96626.81;;;16.01;61.56
68508;BME280;55510;49.560;19.090;2023-04-20T12:23:11;96626.00;;;16.00;61.38
68508;BME280;55510;49.560;19.090;2023-04-20T12:26:12;96616.84;;;16.12;58.72
68508;BME280;55510;49.560;19.090;2023-04-20T12:29:13;96620.66;;;15.95;59.71
68508;BME280;55510;49.560;19.090;2023-04-20T12:32:13;96621.22;;;15.45;60.15
68508;BME280;55510;49.560;19.090;2023-04-20T12:35:14;96619.09;;;15.16;60.43
68508;BME280;55510;49.560;19.090;2023-04-20T12:38:16;96619.84;;;14.81;63.17
68508;BME280;55510;49.560;19.090;2023-04-20T12:41:16;96616.88;;;14.77;63.38
68508;BME280;55510;49.560;19.090;2023-04-20T12:44:17;96610.50;;;15.14;62.71
68508;BME280;55510;49.560;19.090;2023-04-20T12:47:18;96607.81;;;15.66;62.52
68508;BME280;55510;49.560;19.090;2023-04-20T12:50:18;96603.34;;;16.27;63.39
68508;BME280;55510;49.560;19.090;2023-04-20T12:53:19;96598.34;;;16.65;61.19
68508;BME280;55510;49.560;19.090;2023-04-20T12:56:20;96600.56;;;16.53;57.98
68508;BME280;55510;49.560;19.090;2023-04-20T12:59:20;96600.66;;;16.37;57.70
68508;BME280;55510;49.560;19.090;2023-04-20T13:02:21;96603.47;;;15.96;57.92
68508;BME280;55510;49.560;19.090;2023-04-20T13:05:22;96593.53;;;15.86;57.94
68508;BME280;55510;49.560;19.090;2023-04-20T13:08:23;96594.94;;;15.58;58.28
68508;BME280;55510;49.560;19.090;2023-04-20T13:11:23;96590.06;;;15.75;59.71
68508;BME280;55510;49.560;19.090;2023-04-20T13:14:25;96581.69;;;16.08;59.44
68508;BME280;55510;49.560;19.090;2023-04-20T13:17:25;96580.31;;;16.16;57.84
68508;BME280;55510;49.560;19.090;2023-04-20T13:20:26;96581.03;;;16.37;56.80
68508;BME280;55510;49.560;19.090;2023-04-20T13:23:28;96565.53;;;16.68;58.82
68508;BME280;55510;49.560;19.090;2023-04-20T13:26:32;96564.16;;;16.76;56.55
68508;BME280;55510;49.560;19.090;2023-04-20T13:29:32;96563.38;;;17.16;57.80
68508;BME280;55510;49.560;19.090;2023-04-20T13:32:33;96560.88;;;17.24;55.74
68508;BME280;55510;49.560;19.090;2023-04-20T13:35:35;96568.44;;;17.52;57.70
68508;BME280;55510;49.560;19.090;2023-04-20T13:38:35;96572.84;;;17.08;53.73
68508;BME280;55510;49.560;19.090;2023-04-20T13:41:36;96564.03;;;16.92;55.32
68508;BME280;55510;49.560;19.090;2023-04-20T13:44:37;96564.22;;;16.66;54.89
68508;BME280;55510;49.560;19.090;2023-04-20T13:47:38;96572.03;;;16.62;54.94
68508;BME280;55510;49.560;19.090;2023-04-20T13:50:39;96565.44;;;16.89;57.23
68508;BME280;55510;49.560;19.090;2023-04-20T13:53:40;96571.28;;;17.02;55.20
68508;BME280;55510;49.560;19.090;2023-04-20T13:56:41;96563.16;;;17.07;54.14
68508;BME280;55510;49.560;19.090;2023-04-20T13:59:41;96563.88;;;17.18;53.68
68508;BME280;55510;49.560;19.090;2023-04-20T14:02:42;96566.81;;;17.21;54.31
68508;BME280;55510;49.560;19.090;2023-04-20T14:05:43;96558.28;;;16.74;52.59
68508;BME280;55510;49.560;19.090;2023-04-20T14:08:45;96568.75;;;16.26;54.67
68508;BME280;55510;49.560;19.090;2023-04-20T14:11:46;96562.53;;;16.35;56.60
68508;BME280;55510;49.560;19.090;2023-04-20T14:14:47;96563.38;;;16.26;55.24
68508;BME280;55510;49.560;19.090;2023-04-20T14:17:47;96567.53;;;15.92;56.26
68508;BME280;55510;49.560;19.090;2023-04-20T14:20:52;96565.75;;;15.30;57.46
68508;BME280;55510;49.560;19.090;2023-04-20T14:23:54;96564.91;;;14.93;58.25
68508;BME280;55510;49.560;19.090;2023-04-20T14:26:56;96564.91;;;14.78;59.04
68508;BME280;55510;49.560;19.090;2023-04-20T14:29:58;96564.91;;;14.78;59.84
68508;BME280;55510;49.560;19.090;2023-04-20T14:32:59;96564.84;;;14.57;60.44
68508;BME280;55510;49.560;19.090;2023-04-20T14:36:00;96563.19;;;14.35;61.02
68508;BME280;55510;49.560;19.090;2023-04-20T14:39:01;96559.66;;;14.19;60.26
68508;BME280;55510;49.560;19.090;2023-04-20T14:42:01;96555.09;;;14.15;61.63
68508;BME280;55510;49.560;19.090;2023-04-20T14:45:03;96552.78;;;14.55;61.75
68508;BME280;55510;49.560;19.090;2023-04-20T14:48:04;96554.22;;;15.14;58.75
68508;BME280;55510;49.560;19.090;2023-04-20T14:51:05;96557.91;;;15.60;57.91
68508;BME280;55510;49.560;19.090;2023-04-20T14:54:05;96551.16;;;15.83;56.20
68508;BME280;55510;49.560;19.090;2023-04-20T14:57:06;96552.41;;;16.12;55.58
68508;BME280;55510;49.560;19.090;2023-04-20T15:00:07;96562.78;;;16.84;53.38
68508;BME280;55510;49.560;19.090;2023-04-20T15:03:10;96548.94;;;17.01;52.11
68508;BME280;55510;49.560;19.090;2023-04-20T15:06:10;96556.38;;;16.75;52.16
68508;BME280;55510;49.560;19.090;2023-04-20T15:09:11;96561.78;;;16.24;54.22
68508;BME280;55510;49.560;19.090;2023-04-20T15:12:13;96554.16;;;15.61;54.50
68508;BME280;55510;49.560;19.090;2023-04-20T15:15:14;96546.16;;;14.99;55.80
68508;BME280;55510;49.560;19.090;2023-04-20T15:18:16;96563.25;;;14.61;57.35
68508;BME280;55510;49.560;19.090;2023-04-20T15:21:17;96558.91;;;14.29;56.10
68508;BME280;55510;49.560;19.090;2023-04-20T15:24:17;96563.59;;;14.01;58.07
68508;BME280;55510;49.560;19.090;2023-04-20T15:27:18;96562.13;;;13.73;60.93
68508;BME280;55510;49.560;19.090;2023-04-20T15:30:18;96563.91;;;13.57;60.03
68508;BME280;55510;49.560;19.090;2023-04-20T15:33:20;96556.38;;;13.48;58.59
68508;BME280;55510;49.560;19.090;2023-04-20T15:36:21;96561.06;;;13.36;58.60
68508;BME280;55510;49.560;19.090;2023-04-20T15:39:21;96552.13;;;13.53;59.40
68508;BME280;55510;49.560;19.090;2023-04-20T15:42:22;96553.47;;;14.14;59.55
68508;BME280;55510;49.560;19.090;2023-04-20T15:45:23;96547.25;;;14.87;56.83
68508;BME280;55510;49.560;19.090;2023-04-20T15:48:24;96553.09;;;15.46;55.09